Time;durP1;ratioP1;P1;durP2;ratioP2;P2;SDS_P1;SDS_P2;PMS_P1;PMS_P2;Temp;Humidity;BMP_temperature;BMP_pressure;BME280_temperature;BME280_humidity;BME280_pressure;Samples;Min_cycle;Max_cycle;Signal;HPM_P1;HPM_P2
2022/04/01 00:00:48;;;;;;;;;74.20;60.40;;;;;;;;5247651;28;8803;-71
2022/04/01 00:03:22;;;;;;;;;66.40;50.60;;;;;;;;5214529;28;8811;-71
2022/04/01 00:05:55;;;;;;;;;29.00;26.40;;;;;;;;5231330;28;8787;-71
2022/04/01 00:08:28;;;;;;;;;37.80;35.00;;;;;;;;5226679;28;8894;-71
2022/04/01 00:11:01;;;;;;;;;42.20;38.40;;;;;;;;5210785;28;8793;-71
2022/04/01 00:13:54;;;;;;;;;47.60;45.20;;;;;;;;5227635;28;8816;-71
2022/04/01 00:16:27;;;;;;;;;53.80;48.60;;;;;;;;5227135;28;8824;-71
2022/04/01 00:19:00;;;;;;;;;56.20;50.60;;;;;;;;5226771;28;8801;-71
2022/04/01 00:21:32;;;;;;;;;57.60;47.00;;;;;;;;5214641;28;8783;-71
2022/04/01 00:24:04;;;;;;;;;83.00;67.00;;;;;;;;5230971;28;8803;-72
2022/04/01 00:26:36;;;;;;;;;81.40;66.00;;;;;;;;5209818;28;8825;-73
2022/04/01 00:29:16;;;;;;;;;49.40;45.00;;;;;;;;5226591;28;9563;-73
2022/04/01 00:31:50;;;;;;;;;46.20;44.80;;;;;;;;5226686;28;8858;-73
2022/04/01 00:34:23;;;;;;;;;40.00;36.40;;;;;;;;5214872;28;8799;-75
2022/04/01 00:36:56;;;;;;;;;29.60;27.60;;;;;;;;5230451;28;8810;-75
2022/04/01 00:39:30;;;;;;;;;30.00;29.80;;;;;;;;5247650;28;8783;-74
2022/04/01 00:42:03;;;;;;;;;40.00;40.00;;;;;;;;5214072;28;8779;-74
2022/04/01 00:44:37;;;;;;;;;28.20;26.40;;;;;;;;5230404;28;8806;-75
2022/04/01 00:47:14;;;;;;;;;25.60;25.00;;;;;;;;5246893;28;8839;-72
2022/04/01 00:49:46;;;;;;;;;23.80;23.80;;;;;;;;5247115;28;8787;-71
2022/04/01 00:52:22;;;;;;;;;23.40;23.40;;;;;;;;5230602;28;8787;-71
2022/04/01 00:54:55;;;;;;;;;20.60;20.40;;;;;;;;5247112;28;8798;-72
2022/04/01 00:57:29;;;;;;;;;32.80;30.40;;;;;;;;5213616;28;8787;-72
2022/04/01 01:00:04;;;;;;;;;25.00;24.00;;;;;;;;5214201;28;8779;-72
2022/04/01 01:02:36;;;;;;;;;39.80;35.60;;;;;;;;5213755;28;8771;-72
2022/04/01 01:05:11;;;;;;;;;14.40;10.60;;;;;;;;5246522;28;8829;-71
2022/04/01 01:07:43;;;;;;;;;17.40;16.20;;;;;;;;5246138;28;8834;-72
2022/04/01 01:10:18;;;;;;;;;17.80;17.00;;;;;;;;5213764;28;8806;-71
2022/04/01 01:12:51;;;;;;;;;12.80;12.80;;;;;;;;5230150;28;8798;-71
2022/04/01 01:15:43;;;;;;;;;15.60;15.00;;;;;;;;5232683;28;8779;-71
2022/04/01 01:18:35;;;;;;;;;17.80;17.00;;;;;;;;5246505;28;8835;-71
2022/04/01 01:21:09;;;;;;;;;7.40;7.40;;;;;;;;5225438;28;8794;-73
2022/04/01 01:23:45;;;;;;;;;9.00;9.00;;;;;;;;5226135;28;8854;-74
2022/04/01 01:26:38;;;;;;;;;17.00;15.80;;;;;;;;5232124;28;8791;-74
2022/04/01 01:29:10;;;;;;;;;12.20;12.20;;;;;;;;5229846;28;8791;-73
2022/04/01 01:32:03;;;;;;;;;12.20;11.80;;;;;;;;5232098;28;9650;-72
2022/04/01 01:34:39;;;;;;;;;13.00;12.20;;;;;;;;5230221;28;8861;-72
2022/04/01 01:37:15;;;;;;;;;13.20;12.40;;;;;;;;5230100;28;9579;-72
2022/04/01 01:39:49;;;;;;;;;4.80;4.80;;;;;;;;5229828;28;8828;-72
2022/04/01 01:42:22;;;;;;;;;6.80;6.80;;;;;;;;5229558;28;8806;-72
2022/04/01 01:44:56;;;;;;;;;11.20;11.00;;;;;;;;5245613;28;8806;-72
2022/04/01 01:47:29;;;;;;;;;10.80;8.00;;;;;;;;5212988;28;8846;-72
2022/04/01 01:55:47;;;;;;;;;4.20;4.20;;;;;;;;5225796;28;8816;-71
2022/04/01 01:58:21;;;;;;;;;7.00;7.00;;;;;;;;5194407;28;8781;-71
2022/04/01 02:00:53;;;;;;;;;16.00;15.40;;;;;;;;5228677;28;8835;-72
2022/04/01 02:03:27;;;;;;;;;17.60;17.60;;;;;;;;5247538;28;8798;-72
2022/04/01 02:05:59;;;;;;;;;19.40;18.60;;;;;;;;5230125;28;8802;-71
2022/04/01 02:08:32;;;;;;;;;13.60;13.60;;;;;;;;5229254;28;8900;-71
2022/04/01 02:11:05;;;;;;;;;17.20;17.20;;;;;;;;5229502;28;9506;-74
2022/04/01 02:13:38;;;;;;;;;9.80;9.80;;;;;;;;5246455;28;8783;-73
2022/04/01 02:16:10;;;;;;;;;44.00;39.40;;;;;;;;5230481;28;8937;-72
2022/04/01 02:18:44;;;;;;;;;65.60;50.00;;;;;;;;5225430;28;8832;-72
2022/04/01 02:21:18;;;;;;;;;67.40;55.40;;;;;;;;5226145;28;8794;-71
2022/04/01 02:23:54;;;;;;;;;65.20;55.80;;;;;;;;5207056;28;8799;-71
2022/04/01 02:26:29;;;;;;;;;73.80;61.20;;;;;;;;5214169;28;8901;-72
2022/04/01 02:29:04;;;;;;;;;69.00;56.80;;;;;;;;5229168;28;8795;-73
2022/04/01 02:31:50;;;;;;;;;63.80;55.40;;;;;;;;5228917;28;8795;-70
2022/04/01 02:34:46;;;;;;;;;70.20;59.80;;;;;;;;5230862;28;8788;-70
2022/04/01 02:37:25;;;;;;;;;82.75;67.75;;;;;;;;5245411;28;8811;-71
2022/04/01 02:40:00;;;;;;;;;84.00;67.00;;;;;;;;5226081;28;8803;-72
2022/04/01 02:42:34;;;;;;;;;47.60;44.60;;;;;;;;5228080;28;9657;-72
2022/04/01 02:45:05;;;;;;;;;41.40;34.40;;;;;;;;5228420;28;8941;-72
2022/04/01 02:47:37;;;;;;;;;41.80;38.20;;;;;;;;5227325;28;8826;-72
2022/04/01 02:50:09;;;;;;;;;21.00;20.00;;;;;;;;5244368;28;8779;-72
2022/04/01 02:52:41;;;;;;;;;31.00;28.80;;;;;;;;5227095;28;8783;-72
2022/04/01 02:55:31;;;;;;;;;16.20;15.20;;;;;;;;5230312;28;8787;-73
2022/04/01 02:58:02;;;;;;;;;18.20;16.80;;;;;;;;5206675;28;8790;-73
2022/04/01 03:00:35;;;;;;;;;16.80;15.60;;;;;;;;5243721;28;8839;-73
2022/04/01 03:03:08;;;;;;;;;18.80;18.80;;;;;;;;5244485;28;8807;-74
2022/04/01 03:05:42;;;;;;;;;17.20;17.20;;;;;;;;5244300;28;8799;-72
2022/04/01 03:08:14;;;;;;;;;24.80;24.80;;;;;;;;5227869;28;8826;-72
2022/04/01 03:10:45;;;;;;;;;27.60;27.60;;;;;;;;5228029;28;8971;-73
2022/04/01 03:13:17;;;;;;;;;25.60;24.80;;;;;;;;5243723;28;8792;-72
2022/04/01 03:16:14;;;;;;;;;27.40;27.40;;;;;;;;5226565;28;8952;-72
2022/04/01 03:18:51;;;;;;;;;22.00;20.00;;;;;;;;5225447;28;8803;-73
2022/04/01 03:21:26;;;;;;;;;23.60;23.40;;;;;;;;5224733;28;8811;-72
2022/04/01 03:24:00;;;;;;;;;22.60;21.60;;;;;;;;5211447;28;8795;-72
2022/04/01 03:26:32;;;;;;;;;20.20;20.20;;;;;;;;5211725;28;8783;-72
2022/04/01 03:29:23;;;;;;;;;20.60;20.60;;;;;;;;5244980;28;8799;-73
2022/04/01 03:32:15;;;;;;;;;19.20;19.20;;;;;;;;5230678;28;8775;-72
2022/04/01 03:34:48;;;;;;;;;21.80;21.80;;;;;;;;5208677;28;8801;-72
2022/04/01 03:37:39;;;;;;;;;36.40;33.20;;;;;;;;5228510;28;8791;-72
2022/04/01 03:40:14;;;;;;;;;37.60;34.20;;;;;;;;5228026;28;8787;-72
2022/04/01 03:43:05;;;;;;;;;38.40;33.60;;;;;;;;5230386;28;9617;-72
2022/04/01 03:45:43;;;;;;;;;37.00;34.40;;;;;;;;5244780;28;8795;-72
2022/04/01 03:48:21;;;;;;;;;44.80;43.40;;;;;;;;5244547;28;8835;-72
2022/04/01 03:50:57;;;;;;;;;41.00;38.60;;;;;;;;5228159;28;8795;-72
2022/04/01 03:53:54;;;;;;;;;68.60;57.60;;;;;;;;5244974;28;8803;-72
2022/04/01 03:56:30;;;;;;;;;36.00;34.60;;;;;;;;5248074;28;8791;-72
2022/04/01 03:59:40;;;;;;;;;27.20;26.60;;;;;;;;5227615;28;9545;-71
2022/04/01 04:02:43;;;;;;;;;24.20;24.20;;;;;;;;5239267;28;8787;-72
2022/04/01 04:05:37;;;;;;;;;28.00;28.00;;;;;;;;5247006;28;8807;-71
2022/04/01 04:08:11;;;;;;;;;21.00;21.00;;;;;;;;5231600;28;8830;-71
2022/04/01 04:10:46;;;;;;;;;34.00;34.00;;;;;;;;5244879;28;8785;-71
2022/04/01 04:13:29;;;;;;;;;33.00;30.00;;;;;;;;5195449;28;9571;-71
2022/04/01 04:16:25;;;;;;;;;44.80;41.00;;;;;;;;5197670;28;8902;-71
2022/04/01 04:19:04;;;;;;;;;73.40;55.80;;;;;;;;5213757;28;8805;-71
2022/04/01 04:22:18;;;;;;;;;52.40;42.80;;;;;;;;5194606;28;8789;-72
2022/04/01 04:24:59;;;;;;;;;54.80;39.80;;;;;;;;5226285;28;8806;-72
2022/04/01 04:27:36;;;;;;;;;48.00;42.20;;;;;;;;5226156;28;8945;-71
2022/04/01 04:30:13;;;;;;;;;43.80;40.20;;;;;;;;5228015;28;8828;-71
2022/04/01 04:33:02;;;;;;;;;49.80;45.00;;;;;;;;5209891;28;8806;-72
2022/04/01 04:35:39;;;;;;;;;38.80;37.20;;;;;;;;5236621;28;8822;-71
2022/04/01 04:38:11;;;;;;;;;59.40;49.20;;;;;;;;5247456;28;9557;-73
2022/04/01 04:40:44;;;;;;;;;81.00;63.40;;;;;;;;5230736;28;8774;-70
2022/04/01 04:43:21;;;;;;;;;100.75;76.75;;;;;;;;5247255;28;8791;-72
2022/04/01 04:45:58;;;;;;;;;96.25;73.75;;;;;;;;5229588;28;8787;-70
2022/04/01 04:48:32;;;;;;;;;79.40;63.20;;;;;;;;5227417;28;8894;-73
2022/04/01 04:51:06;;;;;;;;;85.60;63.40;;;;;;;;5230417;28;8811;-65
2022/04/01 04:53:51;;;;;;;;;66.80;55.00;;;;;;;;5247913;28;9572;-71
2022/04/01 04:56:24;;;;;;;;;26.40;24.80;;;;;;;;5230377;28;8792;-71
2022/04/01 04:58:57;;;;;;;;;40.80;38.80;;;;;;;;5246759;28;8801;-71
2022/04/01 05:01:29;;;;;;;;;35.60;34.60;;;;;;;;5245395;28;8779;-74
2022/04/01 05:04:21;;;;;;;;;41.60;40.00;;;;;;;;5228171;28;9606;-71
2022/04/01 05:07:17;;;;;;;;;37.60;37.40;;;;;;;;5211765;28;9691;-72
2022/04/01 05:10:14;;;;;;;;;49.80;42.40;;;;;;;;5221621;28;8798;-72
2022/04/01 05:12:57;;;;;;;;;61.80;50.80;;;;;;;;5244880;28;8918;-73
2022/04/01 05:15:51;;;;;;;;;38.80;37.20;;;;;;;;5230207;28;8945;-73
2022/04/01 05:18:34;;;;;;;;;42.00;41.00;;;;;;;;5229809;28;8779;-72
2022/04/01 05:21:11;;;;;;;;;48.20;43.40;;;;;;;;5213713;28;8845;-72
2022/04/01 05:23:54;;;;;;;;;53.40;47.00;;;;;;;;5213335;28;8802;-72
2022/04/01 05:26:38;;;;;;;;;32.80;32.80;;;;;;;;5213048;28;8806;-72
2022/04/01 05:29:26;;;;;;;;;49.60;44.40;;;;;;;;5247327;28;9549;-71
2022/04/01 05:32:04;;;;;;;;;30.80;30.00;;;;;;;;5229554;28;8814;-72
2022/04/01 05:34:47;;;;;;;;;34.20;32.20;;;;;;;;5229385;28;8783;-73
2022/04/01 05:37:19;;;;;;;;;29.80;28.80;;;;;;;;5229310;28;8926;-73
2022/04/01 05:39:51;;;;;;;;;29.80;29.80;;;;;;;;5246093;28;8795;-73
2022/04/01 05:42:27;;;;;;;;;33.60;33.00;;;;;;;;5246264;28;8802;-72
2022/04/01 05:45:29;;;;;;;;;31.00;31.00;;;;;;;;5232238;28;8799;-73
2022/04/01 05:48:20;;;;;;;;;35.60;34.00;;;;;;;;5239124;28;9541;-73
2022/04/01 05:50:53;;;;;;;;;24.00;24.00;;;;;;;;5192655;28;9512;-73
2022/04/01 05:53:27;;;;;;;;;30.00;27.80;;;;;;;;5224595;28;8801;-70
2022/04/01 05:55:59;;;;;;;;;45.60;39.80;;;;;;;;5208399;28;8786;-72
2022/04/01 05:58:32;;;;;;;;;34.60;27.40;;;;;;;;5241338;28;8790;-72
2022/04/01 06:01:04;;;;;;;;;38.80;35.20;;;;;;;;5225165;28;8765;-73
2022/04/01 06:03:55;;;;;;;;;32.60;32.60;;;;;;;;5213094;28;8807;-73
2022/04/01 06:06:41;;;;;;;;;38.20;36.40;;;;;;;;5262372;28;8771;-73
2022/04/01 06:09:40;;;;;;;;;29.20;29.00;;;;;;;;5231093;28;8882;-73
2022/04/01 06:12:38;;;;;;;;;27.20;27.20;;;;;;;;5231193;28;8776;-72
2022/04/01 06:15:47;;;;;;;;;31.40;29.40;;;;;;;;5245369;28;8795;-72
2022/04/01 06:18:36;;;;;;;;;31.60;30.60;;;;;;;;5228665;28;8771;-72
2022/04/01 06:21:09;;;;;;;;;39.60;39.00;;;;;;;;5229039;28;8918;-72
2022/04/01 06:23:53;;;;;;;;;31.40;30.60;;;;;;;;5245614;28;8779;-72
2022/04/01 06:26:25;;;;;;;;;44.80;40.20;;;;;;;;5224588;28;8805;-72
2022/04/01 06:28:56;;;;;;;;;46.00;40.60;;;;;;;;5232455;28;8837;-73
2022/04/01 06:31:29;;;;;;;;;45.80;42.60;;;;;;;;5228506;28;8802;-72
2022/04/01 06:34:19;;;;;;;;;21.20;20.80;;;;;;;;5245258;28;8852;-72
2022/04/01 06:37:14;;;;;;;;;34.20;32.80;;;;;;;;5231008;28;8803;-72
2022/04/01 06:40:04;;;;;;;;;28.40;28.00;;;;;;;;5245412;28;8827;-72
2022/04/01 06:42:44;;;;;;;;;67.00;55.20;;;;;;;;5212970;28;8785;-73
2022/04/01 06:45:51;;;;;;;;;51.80;46.00;;;;;;;;5244863;28;8890;-73
2022/04/01 06:49:01;;;;;;;;;30.80;30.40;;;;;;;;5221315;28;8864;-73
2022/04/01 06:51:51;;;;;;;;;32.20;32.20;;;;;;;;5224102;28;8797;-73
2022/04/01 06:54:42;;;;;;;;;27.40;26.20;;;;;;;;5224161;28;8820;-73
2022/04/01 06:57:32;;;;;;;;;36.40;36.20;;;;;;;;5224345;28;9614;-72
2022/04/01 07:00:19;;;;;;;;;39.20;38.00;;;;;;;;5224138;28;8824;-72
2022/04/01 07:02:51;;;;;;;;;27.80;26.80;;;;;;;;5223159;28;8913;-73
2022/04/01 07:05:22;;;;;;;;;29.80;29.60;;;;;;;;5223373;28;8812;-67
2022/04/01 07:07:53;;;;;;;;;25.60;25.20;;;;;;;;5207114;28;8826;-73
2022/04/01 07:10:25;;;;;;;;;29.60;29.60;;;;;;;;5207385;28;8781;-73
2022/04/01 07:12:57;;;;;;;;;30.80;30.80;;;;;;;;5223864;28;8816;-73
2022/04/01 07:15:29;;;;;;;;;31.00;29.80;;;;;;;;5224065;28;8821;-73
2022/04/01 07:18:01;;;;;;;;;27.60;26.60;;;;;;;;5191317;28;8813;-71
2022/04/01 07:20:33;;;;;;;;;26.00;26.00;;;;;;;;5224058;28;8844;-73
2022/04/01 07:23:05;;;;;;;;;26.20;26.20;;;;;;;;5207396;28;8789;-73
2022/04/01 07:25:36;;;;;;;;;26.00;26.00;;;;;;;;5224233;28;8843;-73
2022/04/01 07:28:09;;;;;;;;;29.60;28.60;;;;;;;;5207547;28;8814;-72
2022/04/01 07:30:41;;;;;;;;;29.20;27.60;;;;;;;;5210340;28;8773;-73
2022/04/01 07:33:31;;;;;;;;;29.20;29.20;;;;;;;;5213950;28;8785;-73
2022/04/01 07:36:02;;;;;;;;;37.00;37.00;;;;;;;;5227925;28;8782;-73
2022/04/01 07:38:35;;;;;;;;;23.60;20.60;;;;;;;;5227985;28;8794;-73
2022/04/01 07:41:07;;;;;;;;;31.80;31.80;;;;;;;;5211079;28;8794;-72
2022/04/01 07:43:38;;;;;;;;;32.40;30.60;;;;;;;;5210994;28;8785;-73
2022/04/01 07:46:11;;;;;;;;;19.60;19.40;;;;;;;;5210908;28;8790;-73
2022/04/01 07:48:42;;;;;;;;;23.80;21.20;;;;;;;;5210951;28;8825;-73
2022/04/01 07:51:13;;;;;;;;;25.60;25.60;;;;;;;;5229126;28;8789;-72
2022/04/01 07:53:45;;;;;;;;;26.00;26.00;;;;;;;;5211090;28;8786;-73
2022/04/01 07:56:36;;;;;;;;;21.80;20.00;;;;;;;;5227568;28;8789;-73
2022/04/01 07:59:27;;;;;;;;;25.00;25.00;;;;;;;;5227288;28;8792;-72
2022/04/01 08:01:58;;;;;;;;;34.20;31.20;;;;;;;;5210905;28;8878;-72
2022/04/01 08:04:48;;;;;;;;;21.20;21.20;;;;;;;;5213073;28;8778;-73
2022/04/01 08:07:19;;;;;;;;;14.80;14.80;;;;;;;;5210473;28;8825;-73
2022/04/01 08:09:50;;;;;;;;;20.80;20.00;;;;;;;;5210592;28;8790;-73
2022/04/01 08:12:21;;;;;;;;;24.00;23.60;;;;;;;;5210364;28;8789;-73
2022/04/01 08:14:53;;;;;;;;;23.20;23.20;;;;;;;;5210701;28;8785;-75
2022/04/01 08:17:24;;;;;;;;;21.20;20.60;;;;;;;;5246209;28;8848;-72
2022/04/01 08:19:55;;;;;;;;;16.20;14.80;;;;;;;;5214550;28;8803;-73
2022/04/01 08:22:26;;;;;;;;;19.40;19.00;;;;;;;;5209609;28;8816;-73
2022/04/01 08:25:15;;;;;;;;;19.40;19.40;;;;;;;;5232939;28;8835;-73
2022/04/01 08:27:46;;;;;;;;;23.60;23.00;;;;;;;;5229976;28;8925;-73
2022/04/01 08:30:17;;;;;;;;;11.40;11.40;;;;;;;;5230650;28;8803;-73
2022/04/01 08:33:07;;;;;;;;;15.40;15.40;;;;;;;;5233409;28;8783;-73
2022/04/01 08:35:56;;;;;;;;;11.20;11.20;;;;;;;;5231594;28;8870;-73
2022/04/01 08:38:27;;;;;;;;;16.40;15.60;;;;;;;;5231056;28;8808;-73
2022/04/01 08:40:59;;;;;;;;;16.50;16.50;;;;;;;;5209847;28;8875;-74
2022/04/01 08:43:49;;;;;;;;;15.80;15.80;;;;;;;;5232400;28;9525;-73
2022/04/01 08:46:21;;;;;;;;;9.00;9.00;;;;;;;;5247016;28;8913;-73
2022/04/01 08:48:52;;;;;;;;;15.20;15.20;;;;;;;;5213604;28;9582;-74
2022/04/01 08:51:41;;;;;;;;;9.20;9.20;;;;;;;;5232941;28;8807;-74
2022/04/01 08:54:16;;;;;;;;;16.00;16.00;;;;;;;;5246948;28;9565;-75
2022/04/01 08:56:47;;;;;;;;;26.20;24.80;;;;;;;;5230261;28;8858;-74
2022/04/01 08:59:37;;;;;;;;;31.00;29.60;;;;;;;;5247234;28;8795;-74
2022/04/01 09:02:10;;;;;;;;;12.00;12.00;;;;;;;;5230190;28;8897;-73
2022/04/01 09:04:41;;;;;;;;;13.00;13.00;;;;;;;;5247168;28;8767;-73
2022/04/01 09:07:13;;;;;;;;;10.00;10.00;;;;;;;;5212990;28;8842;-73
2022/04/01 09:09:44;;;;;;;;;13.20;13.00;;;;;;;;5246958;28;8850;-73
2022/04/01 09:12:16;;;;;;;;;10.00;9.40;;;;;;;;5230625;28;8806;-72
2022/04/01 09:14:52;;;;;;;;;15.00;15.00;;;;;;;;5246737;28;8810;-72
2022/04/01 09:17:38;;;;;;;;;25.20;22.20;;;;;;;;5230298;28;8782;-73
2022/04/01 09:20:10;;;;;;;;;10.20;9.60;;;;;;;;5247181;28;8783;-72
2022/04/01 09:22:42;;;;;;;;;19.80;19.80;;;;;;;;5230163;28;8817;-72
2022/04/01 09:25:18;;;;;;;;;16.60;16.60;;;;;;;;5229637;28;8795;-72
2022/04/01 09:27:51;;;;;;;;;14.60;14.60;;;;;;;;5212493;28;8937;-72
2022/04/01 09:30:23;;;;;;;;;18.20;18.20;;;;;;;;5229777;28;8802;-72
2022/04/01 09:32:56;;;;;;;;;14.60;14.00;;;;;;;;5212899;28;8807;-72
2022/04/01 09:35:31;;;;;;;;;12.20;12.20;;;;;;;;5244276;28;8811;-72
2022/04/01 09:38:04;;;;;;;;;12.60;12.60;;;;;;;;5229703;28;8810;-72
2022/04/01 09:40:37;;;;;;;;;16.20;16.20;;;;;;;;5227074;28;8877;-72
2022/04/01 09:43:09;;;;;;;;;15.00;15.00;;;;;;;;5244950;28;8803;-72
2022/04/01 09:45:40;;;;;;;;;10.40;10.40;;;;;;;;5212868;28;9560;-72
2022/04/01 09:48:16;;;;;;;;;18.00;18.00;;;;;;;;5198504;28;8894;-71
2022/04/01 09:50:56;;;;;;;;;16.00;15.80;;;;;;;;5187944;28;8805;-71
2022/04/01 09:53:28;;;;;;;;;17.20;17.20;;;;;;;;5187344;28;8865;-72
2022/04/01 09:56:17;;;;;;;;;14.00;14.00;;;;;;;;5190668;28;8849;-72
2022/04/01 09:59:08;;;;;;;;;7.60;7.60;;;;;;;;5190553;28;8890;-72
2022/04/01 10:01:39;;;;;;;;;9.60;9.60;;;;;;;;5204582;28;8788;-72
2022/04/01 10:04:12;;;;;;;;;12.00;11.20;;;;;;;;5188062;28;8785;-72
2022/04/01 10:06:43;;;;;;;;;16.40;16.40;;;;;;;;5187884;28;8768;-72
2022/04/01 10:09:16;;;;;;;;;18.20;18.20;;;;;;;;5171843;28;8773;-72
2022/04/01 10:11:47;;;;;;;;;12.60;12.60;;;;;;;;5171176;28;8784;-72
2022/04/01 10:14:24;;;;;;;;;14.80;14.80;;;;;;;;5187509;28;9559;-72
2022/04/01 10:16:55;;;;;;;;;17.20;17.20;;;;;;;;5171584;28;9515;-72
2022/04/01 10:19:32;;;;;;;;;15.80;15.40;;;;;;;;5171333;28;8785;-72
2022/04/01 10:22:03;;;;;;;;;15.60;15.60;;;;;;;;5171315;28;8788;-72
2022/04/01 10:24:57;;;;;;;;;13.20;13.20;;;;;;;;5171185;28;8804;-72
2022/04/01 10:27:47;;;;;;;;;21.60;20.20;;;;;;;;5187662;28;8834;-72
2022/04/01 10:30:19;;;;;;;;;29.00;29.00;;;;;;;;5171217;28;8795;-73
2022/04/01 10:33:20;;;;;;;;;23.00;23.00;;;;;;;;5190510;28;9547;-72
2022/04/01 10:35:51;;;;;;;;;26.60;25.60;;;;;;;;5187352;28;8789;-72
2022/04/01 10:38:27;;;;;;;;;10.20;10.20;;;;;;;;5187412;28;8801;-72
2022/04/01 10:41:09;;;;;;;;;12.00;12.00;;;;;;;;5203748;28;8792;-73
2022/04/01 10:43:41;;;;;;;;;19.60;19.60;;;;;;;;5203950;28;8785;-72
2022/04/01 10:46:16;;;;;;;;;22.00;22.00;;;;;;;;5170728;28;8868;-73
2022/04/01 10:52:05;;;;;;;;;11.40;11.40;;;;;;;;5207619;28;8782;-72
2022/04/01 10:54:42;;;;;;;;;10.80;10.80;;;;;;;;5207742;28;8821;-72
2022/04/01 10:57:25;;;;;;;;;5.20;5.20;;;;;;;;5191495;28;8803;-71
2022/04/01 11:00:16;;;;;;;;;15.00;15.00;;;;;;;;5224266;28;8774;-72
2022/04/01 11:02:47;;;;;;;;;12.00;12.00;;;;;;;;5207278;28;8809;-72
2022/04/01 11:05:31;;;;;;;;;12.80;12.60;;;;;;;;5211751;28;8831;-72
2022/04/01 11:08:19;;;;;;;;;11.20;11.20;;;;;;;;5211734;28;9609;-72
2022/04/01 11:11:10;;;;;;;;;7.40;7.40;;;;;;;;5228120;28;8774;-72
2022/04/01 11:13:41;;;;;;;;;13.80;13.00;;;;;;;;5211873;28;8794;-71
2022/04/01 11:16:46;;;;;;;;;16.80;16.80;;;;;;;;5213975;28;8813;-72
2022/04/01 11:19:25;;;;;;;;;11.60;11.00;;;;;;;;5211553;28;9516;-72
2022/04/01 11:21:58;;;;;;;;;13.00;11.80;;;;;;;;5211564;28;9021;-71
2022/04/01 11:24:30;;;;;;;;;16.60;16.20;;;;;;;;5194825;28;8798;-71
2022/04/01 11:27:04;;;;;;;;;26.20;26.00;;;;;;;;5194716;28;8789;-71
2022/04/01 11:29:35;;;;;;;;;17.80;17.00;;;;;;;;5211344;28;8805;-72
2022/04/01 11:32:09;;;;;;;;;16.20;15.80;;;;;;;;5194855;28;8794;-71
2022/04/01 11:34:53;;;;;;;;;12.80;12.60;;;;;;;;5194886;28;8786;-72
2022/04/01 11:37:44;;;;;;;;;32.80;31.80;;;;;;;;5227865;28;9653;-72
2022/04/01 11:40:16;;;;;;;;;19.20;19.20;;;;;;;;5211259;28;8797;-72
2022/04/01 11:42:50;;;;;;;;;10.00;10.00;;;;;;;;5211214;28;8816;-72
2022/04/01 11:45:21;;;;;;;;;27.60;27.60;;;;;;;;5210974;28;8866;-73
2022/04/01 11:47:52;;;;;;;;;14.60;13.60;;;;;;;;5194465;28;8817;-72
2022/04/01 11:50:24;;;;;;;;;8.40;8.40;;;;;;;;5228755;28;8790;-72
2022/04/01 11:53:20;;;;;;;;;8.40;8.40;;;;;;;;5213857;28;8786;-71
2022/04/01 11:55:53;;;;;;;;;9.20;9.00;;;;;;;;5194448;28;8849;-72
2022/04/01 11:58:50;;;;;;;;;8.40;8.40;;;;;;;;5228365;28;8785;-71
2022/04/01 12:01:23;;;;;;;;;9.00;9.00;;;;;;;;5194611;28;9544;-73
2022/04/01 12:04:13;;;;;;;;;9.80;9.80;;;;;;;;5213100;28;8794;-73
2022/04/01 12:10:02;;;;;;;;;12.80;12.80;;;;;;;;5227290;28;8789;-72
2022/04/01 12:12:34;;;;;;;;;12.20;12.20;;;;;;;;5210511;28;8778;-71
2022/04/01 12:15:06;;;;;;;;;7.20;7.20;;;;;;;;5193032;28;8782;-71
2022/04/01 12:17:49;;;;;;;;;10.40;10.40;;;;;;;;5226896;28;8806;-72
2022/04/01 12:20:20;;;;;;;;;16.20;15.60;;;;;;;;5210678;28;8781;-71
2022/04/01 12:22:52;;;;;;;;;9.80;9.80;;;;;;;;5194185;28;8819;-72
2022/04/01 12:25:23;;;;;;;;;11.40;11.40;;;;;;;;5210272;28;8781;-71
2022/04/01 12:27:55;;;;;;;;;18.80;18.80;;;;;;;;5210174;28;8821;-71
2022/04/01 12:30:59;;;;;;;;;22.40;22.20;;;;;;;;5210296;28;8813;-72
2022/04/01 12:33:31;;;;;;;;;18.40;18.40;;;;;;;;5210243;28;8797;-72
2022/04/01 12:36:04;;;;;;;;;12.20;12.20;;;;;;;;5226663;28;8843;-71
2022/04/01 12:38:39;;;;;;;;;18.40;18.40;;;;;;;;5209990;28;9564;-71
2022/04/01 12:41:14;;;;;;;;;15.00;14.20;;;;;;;;5210120;28;8778;-71
2022/04/01 12:43:46;;;;;;;;;8.40;8.40;;;;;;;;5210061;28;9558;-71
2022/04/01 12:46:19;;;;;;;;;20.60;18.40;;;;;;;;5226399;28;8818;-71
2022/04/01 12:49:13;;;;;;;;;16.80;16.80;;;;;;;;5193219;28;8818;-71
2022/04/01 12:52:04;;;;;;;;;15.40;15.40;;;;;;;;5235093;28;8920;-71
2022/04/01 12:54:38;;;;;;;;;40.40;36.20;;;;;;;;5209980;28;8781;-72
2022/04/01 12:57:10;;;;;;;;;63.80;51.40;;;;;;;;5209803;28;8867;-72
2022/04/01 12:59:42;;;;;;;;;57.60;48.60;;;;;;;;5193230;28;8924;-72
2022/04/01 13:02:14;;;;;;;;;64.20;53.60;;;;;;;;5209605;28;8794;-72
2022/04/01 13:04:50;;;;;;;;;14.60;14.60;;;;;;;;5226241;28;8778;-72
2022/04/01 13:07:27;;;;;;;;;8.40;8.40;;;;;;;;5194327;28;8854;-73
2022/04/01 13:09:59;;;;;;;;;7.20;7.20;;;;;;;;5225741;28;9514;-73
2022/04/01 13:12:43;;;;;;;;;3.80;3.80;;;;;;;;5248009;28;9510;-72
2022/04/01 13:15:33;;;;;;;;;16.20;14.20;;;;;;;;5230894;28;9496;-72
2022/04/01 13:18:04;;;;;;;;;9.60;9.60;;;;;;;;5195517;28;8785;-71
2022/04/01 13:20:35;;;;;;;;;3.00;3.00;;;;;;;;5195878;28;8824;-71
2022/04/01 13:23:07;;;;;;;;;104.00;86.00;;;;;;;;5209206;28;8801;-71
2022/04/01 13:25:57;;;;;;;;;19.80;18.80;;;;;;;;5212116;28;8832;-71
2022/04/01 13:28:46;;;;;;;;;25.20;25.20;;;;;;;;5239218;28;8821;-71
2022/04/01 13:31:17;;;;;;;;;14.20;14.00;;;;;;;;5226562;28;8855;-71
2022/04/01 13:33:48;;;;;;;;;11.40;10.80;;;;;;;;5229246;28;8795;-70
2022/04/01 13:36:19;;;;;;;;;13.60;13.60;;;;;;;;5246396;28;8779;-70
2022/04/01 13:38:50;;;;;;;;;14.00;13.00;;;;;;;;5229433;28;8818;-70
2022/04/01 13:41:21;;;;;;;;;30.60;27.40;;;;;;;;5229644;28;8794;-70
2022/04/01 13:43:51;;;;;;;;;19.50;19.25;;;;;;;;5245867;28;8830;-70
2022/04/01 13:46:22;;;;;;;;;20.40;19.00;;;;;;;;5207961;28;10534;-70
2022/04/01 13:48:53;;;;;;;;;15.20;13.80;;;;;;;;5208613;28;8844;-70
2022/04/01 13:51:24;;;;;;;;;11.50;11.50;;;;;;;;5192589;28;8773;-70
2022/04/01 13:53:56;;;;;;;;;12.75;12.75;;;;;;;;5224851;28;11482;-70
2022/04/01 13:56:27;;;;;;;;;15.80;15.40;;;;;;;;5208491;28;10508;-70
2022/04/01 13:58:58;;;;;;;;;18.00;17.50;;;;;;;;5210292;28;8808;-70
2022/04/01 14:01:29;;;;;;;;;14.75;14.50;;;;;;;;5229028;28;8940;-71
2022/04/01 14:03:59;;;;;;;;;13.00;13.00;;;;;;;;5207884;28;11453;-71
2022/04/01 14:06:31;;;;;;;;;16.50;16.50;;;;;;;;5191893;28;8789;-71
2022/04/01 14:09:22;;;;;;;;;16.80;16.80;;;;;;;;5224648;28;9063;-71
2022/04/01 14:11:52;;;;;;;;;15.80;15.80;;;;;;;;5208116;28;8812;-71
2022/04/01 14:14:41;;;;;;;;;16.20;16.20;;;;;;;;5224795;28;8932;-71
2022/04/01 14:17:12;;;;;;;;;9.00;9.00;;;;;;;;5208294;28;8929;-71
2022/04/01 14:19:43;;;;;;;;;12.75;12.00;;;;;;;;5207044;28;9651;-71
2022/04/01 14:22:14;;;;;;;;;8.25;8.25;;;;;;;;5212432;28;8771;-71
2022/04/01 14:24:45;;;;;;;;;12.20;12.00;;;;;;;;5228656;28;8799;-70
2022/04/01 14:27:16;;;;;;;;;10.20;10.20;;;;;;;;5245057;28;8934;-71
2022/04/01 14:32:37;;;;;;;;;11.20;11.20;;;;;;;;5228691;28;8929;-71
2022/04/01 14:35:09;;;;;;;;;17.00;14.60;;;;;;;;5232010;28;8779;-72
2022/04/01 14:37:40;;;;;;;;;15.00;13.80;;;;;;;;5238906;28;8818;-72
2022/04/01 14:40:11;;;;;;;;;15.80;15.20;;;;;;;;5228920;28;8833;-72
2022/04/01 14:42:42;;;;;;;;;18.80;18.00;;;;;;;;5247605;28;8815;-71
2022/04/01 14:45:14;;;;;;;;;15.25;15.25;;;;;;;;5252407;28;8789;-71
2022/04/01 14:48:12;;;;;;;;;14.40;14.20;;;;;;;;5245292;28;9085;-71
2022/04/01 14:50:45;;;;;;;;;19.20;19.20;;;;;;;;5243969;28;8842;-72
2022/04/01 14:53:34;;;;;;;;;28.80;28.80;;;;;;;;5238686;28;8835;-73
2022/04/01 14:56:05;;;;;;;;;24.75;24.75;;;;;;;;5225227;28;8823;-73
2022/04/01 14:58:36;;;;;;;;;23.60;23.60;;;;;;;;5217924;28;8839;-73
2022/04/01 15:01:07;;;;;;;;;30.25;29.50;;;;;;;;5212064;28;8799;-74
2022/04/01 15:03:38;;;;;;;;;26.80;26.80;;;;;;;;5247749;28;8823;-73
2022/04/01 15:06:09;;;;;;;;;36.00;35.00;;;;;;;;5236564;28;8827;-73
2022/04/01 15:08:40;;;;;;;;;42.00;39.20;;;;;;;;5231342;28;8833;-73
2022/04/01 15:11:11;;;;;;;;;57.00;48.00;;;;;;;;5212579;28;8813;-72
2022/04/01 15:13:42;;;;;;;;;62.00;48.25;;;;;;;;5208387;28;10885;-73
2022/04/01 15:16:13;;;;;;;;;66.40;54.20;;;;;;;;5212522;28;8940;-72
2022/04/01 15:18:44;;;;;;;;;63.80;49.60;;;;;;;;5228503;28;8888;-72
2022/04/01 15:21:16;;;;;;;;;64.40;53.40;;;;;;;;5243540;28;8793;-72
2022/04/01 15:23:47;;;;;;;;;59.20;49.80;;;;;;;;5225909;28;8823;-72
2022/04/01 15:26:18;;;;;;;;;68.40;55.60;;;;;;;;5231047;28;8816;-72
2022/04/01 15:28:49;;;;;;;;;64.80;52.60;;;;;;;;5236814;28;8836;-73
2022/04/01 15:31:20;;;;;;;;;69.40;56.40;;;;;;;;5219589;28;8816;-72
2022/04/01 15:33:52;;;;;;;;;65.40;54.00;;;;;;;;5234053;28;8848;-72
2022/04/01 15:36:26;;;;;;;;;60.40;50.80;;;;;;;;5214610;28;9597;-71
2022/04/01 15:38:58;;;;;;;;;63.60;53.80;;;;;;;;5207315;28;8874;-71
2022/04/01 15:41:32;;;;;;;;;63.20;52.40;;;;;;;;5242614;28;8841;-71
2022/04/01 15:44:10;;;;;;;;;59.80;49.80;;;;;;;;5221953;28;8819;-72
2022/04/01 15:46:42;;;;;;;;;89.40;68.40;;;;;;;;5240947;28;8813;-71